Time;durP1;ratioP1;P1;durP2;ratioP2;P2;SDS_P1;SDS_P2;PMS_P1;PMS_P2;Temp;Humidity;BMP_temperature;BMP_pressure;BME280_temperature;BME280_humidity;BME280_pressure;Samples;Min_cycle;Max_cycle;Signal;HPM_P1;HPM_P2
2022/03/12 00:01:25;;;;;;;52.60;39.78;;;25.90;85.20;;;;;;1882259;75;21195;-86
2022/03/12 00:03:58;;;;;;;53.73;39.05;;;25.90;85.00;;;;;;1855295;75;21186;-87
2022/03/12 00:06:29;;;;;;;48.60;35.98;;;25.90;85.00;;;;;;1890501;75;21123;-87
2022/03/12 00:09:00;;;;;;;49.65;37.35;;;25.90;84.90;;;;;;1897066;74;21216;-87
2022/03/12 00:11:34;;;;;;;49.05;36.60;;;25.90;85.10;;;;;;1890340;74;21139;-87
2022/03/12 00:14:08;;;;;;;39.38;30.12;;;26.00;85.10;;;;;;1897876;75;21479;-88
2022/03/12 00:16:38;;;;;;;42.13;29.92;;;26.00;84.30;;;;;;1888602;74;21107;-87
2022/03/12 00:19:09;;;;;;;42.35;30.02;;;25.90;84.10;;;;;;1885101;74;21590;-87
2022/03/12 00:21:42;;;;;;;37.17;27.32;;;26.00;84.10;;;;;;1896598;75;21552;-87
2022/03/12 00:24:15;;;;;;;42.38;28.47;;;25.90;83.70;;;;;;1889285;74;21276;-88
2022/03/12 00:26:46;;;;;;;41.90;27.45;;;25.90;84.20;;;;;;1897794;75;21635;-87
2022/03/12 00:29:19;;;;;;;41.55;28.35;;;25.90;83.50;;;;;;1902746;74;21114;-88
2022/03/12 00:31:53;;;;;;;36.83;27.50;;;26.00;83.90;;;;;;1904064;74;21950;-88
2022/03/12 00:34:22;;;;;;;44.65;28.83;;;26.00;84.30;;;;;;1906899;74;21111;-86
2022/03/12 00:36:53;;;;;;;36.42;28.00;;;26.00;84.00;;;;;;1879342;74;21261;-87
2022/03/12 00:39:24;;;;;;;36.20;27.58;;;26.00;83.70;;;;;;1850163;77;21124;-87
2022/03/12 00:41:54;;;;;;;38.08;28.07;;;26.10;83.70;;;;;;1863422;75;21155;-86
2022/03/12 00:44:26;;;;;;;36.03;27.20;;;26.20;83.50;;;;;;1891384;75;21171;-87
2022/03/12 00:46:56;;;;;;;37.05;26.70;;;26.20;83.40;;;;;;1875456;76;21143;-87
2022/03/12 00:49:27;;;;;;;39.23;27.48;;;26.20;83.00;;;;;;1887968;74;21716;-87
2022/03/12 00:51:58;;;;;;;34.78;26.45;;;26.20;83.00;;;;;;1898943;75;21103;-86
2022/03/12 00:54:29;;;;;;;33.48;24.18;;;26.20;83.70;;;;;;1890433;74;21162;-86
2022/03/12 00:56:59;;;;;;;36.38;25.52;;;26.20;82.50;;;;;;1893351;74;21158;-86
2022/03/12 00:59:31;;;;;;;36.48;25.60;;;26.30;82.50;;;;;;1899648;74;21248;-87
2022/03/12 01:02:01;;;;;;;32.95;24.80;;;26.30;83.30;;;;;;1894526;74;21143;-86
2022/03/12 01:04:33;;;;;;;33.80;24.47;;;26.30;82.30;;;;;;1893921;75;21151;-86
2022/03/12 01:07:04;;;;;;;34.35;25.32;;;26.40;82.40;;;;;;1891913;74;21563;-86
2022/03/12 01:09:36;;;;;;;33.85;24.67;;;26.40;82.20;;;;;;1890779;74;21748;-86
2022/03/12 01:12:08;;;;;;;33.65;25.40;;;26.40;82.20;;;;;;1891328;74;21651;-86
2022/03/12 01:14:41;;;;;;;35.65;25.12;;;26.40;81.90;;;;;;1897318;74;21578;-87
2022/03/12 01:17:11;;;;;;;33.23;24.65;;;26.50;82.20;;;;;;1903518;74;21269;-88
2022/03/12 01:19:43;;;;;;;35.88;24.72;;;26.50;82.30;;;;;;1887383;75;21465;-86
2022/03/12 01:22:20;;;;;;;29.60;23.12;;;26.60;82.20;;;;;;1861261;75;21144;-86
2022/03/12 01:24:47;;;;;;;34.15;24.18;;;26.50;82.30;;;;;;1873175;75;21124;-86
2022/03/12 01:27:18;;;;;;;36.03;24.43;;;26.60;82.10;;;;;;1883281;75;21248;-87
2022/03/12 01:29:49;;;;;;;30.82;21.73;;;26.60;81.60;;;;;;1893091;74;21072;-86
2022/03/12 01:32:20;;;;;;;31.73;22.37;;;26.60;81.60;;;;;;1888054;75;22332;-85
2022/03/12 01:34:51;;;;;;;33.23;22.42;;;26.70;81.60;;;;;;1892149;74;21139;-86
2022/03/12 01:37:22;;;;;;;33.88;22.87;;;26.70;81.50;;;;;;1834294;77;21201;-86
2022/03/12 01:39:53;;;;;;;32.65;23.15;;;26.80;81.20;;;;;;1889866;74;21139;-88
2022/03/12 01:42:27;;;;;;;31.12;23.12;;;26.80;81.10;;;;;;1831282;77;21195;-86
2022/03/12 01:44:56;;;;;;;33.75;23.83;;;26.90;80.90;;;;;;1881385;74;21115;-86
2022/03/12 01:47:27;;;;;;;33.15;23.92;;;26.90;80.90;;;;;;1890412;74;21168;-86
2022/03/12 01:49:58;;;;;;;35.90;23.98;;;26.90;81.00;;;;;;1903140;74;21103;-88
2022/03/12 01:52:31;;;;;;;32.15;23.75;;;26.90;80.80;;;;;;1875716;75;21676;-71
2022/03/12 01:55:05;;;;;;;33.35;22.95;;;26.90;80.60;;;;;;1882968;75;21116;-71
2022/03/12 01:57:34;;;;;;;31.90;23.12;;;27.00;81.00;;;;;;1887723;74;21080;-72
2022/03/12 02:00:06;;;;;;;80.32;27.07;;;27.00;80.60;;;;;;1890872;74;21142;-71
2022/03/12 02:02:37;;;;;;;28.17;21.85;;;27.00;80.10;;;;;;1898646;74;21391;-73
2022/03/12 02:05:10;;;;;;;29.42;20.52;;;27.00;79.80;;;;;;1894447;74;21152;-72
2022/03/12 02:07:40;;;;;;;28.32;20.80;;;27.10;79.40;;;;;;1886658;75;21717;-73
2022/03/12 02:10:13;;;;;;;29.00;21.65;;;27.10;79.10;;;;;;1871534;75;21147;-73
2022/03/12 02:12:43;;;;;;;26.62;19.80;;;27.20;79.20;;;;;;1863782;75;21190;-73
2022/03/12 02:15:15;;;;;;;29.55;21.05;;;27.30;78.90;;;;;;1868021;76;21568;-74
2022/03/12 02:17:46;;;;;;;37.60;23.22;;;27.30;78.10;;;;;;1866415;75;21277;-71
2022/03/12 02:20:19;;;;;;;35.75;24.00;;;27.40;78.10;;;;;;1867528;75;21587;-72
2022/03/12 02:22:53;;;;;;;37.85;25.60;;;27.40;78.40;;;;;;1856580;75;21139;-72
2022/03/12 02:25:26;;;;;;;33.05;24.80;;;27.40;78.40;;;;;;1873111;75;21120;-72
2022/03/12 02:27:58;;;;;;;38.80;24.77;;;27.50;78.40;;;;;;1878250;75;21182;-72
2022/03/12 02:30:39;;;;;;;34.48;25.27;;;27.50;78.40;;;;;;1874016;75;21124;-72
2022/03/12 02:33:04;;;;;;;31.55;25.00;;;27.70;78.40;;;;;;1877743;75;21146;-72
2022/03/12 02:35:35;;;;;;;31.42;24.02;;;27.70;78.30;;;;;;1873656;75;21568;-72
2022/03/12 02:38:07;;;;;;;33.38;24.32;;;27.80;78.20;;;;;;1889237;75;21191;-72
2022/03/12 02:40:41;;;;;;;35.78;23.22;;;28.00;77.50;;;;;;1866999;75;21124;-72
2022/03/12 02:43:14;;;;;;;32.98;24.12;;;28.10;76.60;;;;;;1864978;76;21077;-70
2022/03/12 02:45:43;;;;;;;30.43;21.23;;;28.20;75.80;;;;;;1868534;75;21832;-70
2022/03/12 02:48:15;;;;;;;29.25;21.93;;;28.30;75.50;;;;;;1877673;75;21217;-70
2022/03/12 02:50:45;;;;;;;33.28;22.07;;;28.40;74.00;;;;;;1869466;75;21166;-70
2022/03/12 02:53:18;;;;;;;28.07;22.37;;;28.50;74.50;;;;;;1881674;75;21155;-70
2022/03/12 02:55:48;;;;;;;30.08;22.30;;;28.70;73.40;;;;;;1881053;75;21181;-72
2022/03/12 02:58:19;;;;;;;28.38;21.80;;;28.80;73.10;;;;;;1877507;75;21124;-72
2022/03/12 03:00:50;;;;;;;27.95;21.20;;;28.80;72.90;;;;;;1861776;75;21241;-72
2022/03/12 03:03:21;;;;;;;29.30;21.07;;;28.90;72.20;;;;;;1866047;75;21157;-72
2022/03/12 03:05:55;;;;;;;30.10;21.27;;;29.00;72.40;;;;;;1863955;75;21771;-73
2022/03/12 03:08:26;;;;;;;29.87;23.65;;;29.10;71.50;;;;;;1863989;76;21143;-73
2022/03/12 03:10:59;;;;;;;30.27;23.07;;;29.10;71.70;;;;;;1867864;76;21098;-71
2022/03/12 03:13:30;;;;;;;33.50;22.70;;;29.20;71.70;;;;;;1869665;75;21230;-72
2022/03/12 03:16:03;;;;;;;34.90;23.27;;;29.30;71.30;;;;;;1871105;76;21076;-72
2022/03/12 03:18:38;;;;;;;31.25;23.10;;;29.40;71.40;;;;;;1868401;75;21689;-72
2022/03/12 03:21:11;;;;;;;30.25;23.60;;;29.50;71.50;;;;;;1836682;77;21167;-71
2022/03/12 03:23:46;;;;;;;31.73;23.67;;;29.60;71.80;;;;;;1822265;77;21419;-72
2022/03/12 03:26:18;;;;;;;31.87;23.95;;;29.80;71.10;;;;;;1858344;76;21206;-71
2022/03/12 03:28:48;;;;;;;32.55;23.85;;;29.90;71.10;;;;;;1867918;75;21233;-71
2022/03/12 03:31:19;;;;;;;29.80;23.67;;;30.00;69.70;;;;;;1868534;75;21151;-72
2022/03/12 03:33:50;;;;;;;33.38;23.77;;;30.00;69.60;;;;;;1871119;76;21664;-72
2022/03/12 03:36:21;;;;;;;34.23;24.07;;;30.20;69.30;;;;;;1868183;76;21140;-73
2022/03/12 03:38:52;;;;;;;31.07;23.98;;;30.20;69.40;;;;;;1865211;76;21119;-72
2022/03/12 03:41:23;;;;;;;29.85;22.80;;;30.30;68.50;;;;;;1858894;76;21143;-73
2022/03/12 03:43:54;;;;;;;35.17;23.98;;;30.40;68.50;;;;;;1866230;76;21132;-72
2022/03/12 03:46:25;;;;;;;30.00;22.93;;;30.60;67.70;;;;;;1870392;76;21080;-72
2022/03/12 03:48:56;;;;;;;28.23;22.13;;;30.70;67.30;;;;;;1803048;78;21201;-72
2022/03/12 03:51:27;;;;;;;29.20;21.52;;;30.80;67.30;;;;;;1807301;78;21683;-70
2022/03/12 03:53:58;;;;;;;28.55;21.48;;;30.90;66.50;;;;;;1800192;79;21179;-72
2022/03/12 03:56:29;;;;;;;28.62;20.52;;;31.10;66.90;;;;;;1811160;78;21187;-72
2022/03/12 03:59:00;;;;;;;30.25;21.97;;;31.20;65.50;;;;;;1868556;75;21089;-72
2022/03/12 04:01:31;;;;;;;29.65;21.33;;;31.30;65.50;;;;;;1871345;76;21156;-72
2022/03/12 04:04:03;;;;;;;26.70;21.25;;;31.40;67.10;;;;;;1872550;75;21135;-72
2022/03/12 04:06:38;;;;;;;29.12;21.15;;;31.50;65.50;;;;;;1876563;75;21088;-71
2022/03/12 04:09:06;;;;;;;26.52;20.45;;;31.50;64.20;;;;;;1876735;75;21248;-72
2022/03/12 04:11:38;;;;;;;30.43;21.97;;;31.60;63.50;;;;;;1866253;75;21179;-70
2022/03/12 04:14:09;;;;;;;28.95;21.50;;;31.70;64.30;;;;;;1871297;75;21524;-73
2022/03/12 04:16:43;;;;;;;26.40;20.95;;;31.70;63.60;;;;;;1875540;75;21177;-72
2022/03/12 04:19:14;;;;;;;30.05;22.27;;;31.80;64.40;;;;;;1870324;75;21166;-72
2022/03/12 04:21:45;;;;;;;29.40;22.25;;;31.80;64.30;;;;;;1866055;76;21108;-71
2022/03/12 04:24:16;;;;;;;33.02;23.75;;;31.90;63.20;;;;;;1875378;76;21748;-72
2022/03/12 04:26:47;;;;;;;28.83;24.87;;;31.90;64.50;;;;;;1874116;76;21171;-72
2022/03/12 04:29:19;;;;;;;31.85;24.82;;;31.90;65.30;;;;;;1870931;75;21148;-71
2022/03/12 04:31:49;;;;;;;29.32;23.18;;;32.00;65.30;;;;;;1874245;75;21131;-72
2022/03/12 04:34:21;;;;;;;31.07;24.90;;;32.00;63.80;;;;;;1839179;77;21120;-73
2022/03/12 04:36:52;;;;;;;35.30;24.95;;;32.10;64.30;;;;;;1874450;75;21667;-73
2022/03/12 04:39:22;;;;;;;32.78;24.12;;;32.20;64.30;;;;;;1873723;75;21182;-73
2022/03/12 04:41:53;;;;;;;32.93;23.85;;;32.30;63.50;;;;;;1873539;75;21150;-73
2022/03/12 04:44:24;;;;;;;31.73;25.15;;;32.30;63.30;;;;;;1877986;75;21091;-73
2022/03/12 04:46:55;;;;;;;31.82;24.40;;;32.40;63.40;;;;;;1874685;75;21268;-74
2022/03/12 04:49:26;;;;;;;31.35;26.10;;;32.40;63.20;;;;;;1873762;75;21704;-73
2022/03/12 04:51:57;;;;;;;34.05;25.05;;;32.60;63.10;;;;;;1875199;75;21595;-74
2022/03/12 04:54:30;;;;;;;37.13;26.35;;;32.70;64.20;;;;;;1876318;75;21170;-74
2022/03/12 04:57:01;;;;;;;37.90;27.07;;;32.70;62.00;;;;;;1869774;75;21175;-73
2022/03/12 04:59:32;;;;;;;36.23;26.57;;;32.70;62.60;;;;;;1874563;75;21175;-74
2022/03/12 05:02:03;;;;;;;35.15;23.52;;;32.70;63.00;;;;;;1876056;75;21166;-74
2022/03/12 05:04:35;;;;;;;28.20;22.73;;;32.80;63.10;;;;;;1870987;75;21318;-74
2022/03/12 05:07:09;;;;;;;27.67;21.57;;;32.80;62.80;;;;;;1865631;75;21092;-74
2022/03/12 05:09:40;;;;;;;35.23;23.62;;;32.80;62.70;;;;;;1854935;75;21185;-74
2022/03/12 05:12:11;;;;;;;30.37;23.50;;;32.90;62.40;;;;;;1867051;76;21163;-73
2022/03/12 05:14:44;;;;;;;31.68;22.40;;;32.90;62.80;;;;;;1858730;76;21261;-73
2022/03/12 05:17:14;;;;;;;30.88;22.30;;;33.00;63.00;;;;;;1864138;75;21242;-73
2022/03/12 05:19:45;;;;;;;25.70;21.55;;;33.00;61.50;;;;;;1864414;76;21107;-74
2022/03/12 05:22:16;;;;;;;29.05;21.95;;;33.10;61.80;;;;;;1864842;76;21615;-72
2022/03/12 05:24:47;;;;;;;28.17;21.93;;;33.10;61.30;;;;;;1863863;76;21846;-72
2022/03/12 05:27:18;;;;;;;30.62;20.92;;;33.10;61.10;;;;;;1862500;76;21709;-70
2022/03/12 05:29:51;;;;;;;29.75;22.73;;;33.20;61.30;;;;;;1865282;75;21166;-72
2022/03/12 05:32:21;;;;;;;25.43;20.62;;;33.10;60.50;;;;;;1865820;76;21073;-72
2022/03/12 05:34:52;;;;;;;30.65;20.72;;;33.10;60.90;;;;;;1865692;75;21217;-72
2022/03/12 05:37:23;;;;;;;29.85;20.55;;;33.20;60.90;;;;;;1866839;76;21146;-72
2022/03/12 05:39:54;;;;;;;25.00;20.32;;;33.20;60.50;;;;;;1861997;75;21076;-71
2022/03/12 05:42:26;;;;;;;27.27;20.50;;;33.20;61.10;;;;;;1860296;76;21806;-72
2022/03/12 05:44:57;;;;;;;33.30;21.35;;;33.30;60.80;;;;;;1809039;78;21170;-72
2022/03/12 05:47:28;;;;;;;31.65;21.80;;;33.30;60.60;;;;;;1814855;78;21689;-72
2022/03/12 05:49:59;;;;;;;28.70;20.27;;;33.40;60.40;;;;;;1807653;79;21140;-72
2022/03/12 05:52:30;;;;;;;25.45;19.35;;;33.40;60.40;;;;;;1802140;79;21093;-71
2022/03/12 05:55:05;;;;;;;30.00;22.07;;;33.50;60.00;;;;;;1803996;78;21178;-70
2022/03/12 05:57:33;;;;;;;29.15;19.77;;;33.50;60.20;;;;;;1835427;77;21441;-70
2022/03/12 06:00:10;;;;;;;28.10;19.95;;;33.60;59.70;;;;;;1832804;77;21139;-72
2022/03/12 06:02:41;;;;;;;28.23;19.17;;;33.70;59.50;;;;;;1839200;77;21175;-72
2022/03/12 06:05:14;;;;;;;27.17;20.52;;;33.80;59.10;;;;;;1834980;78;21148;-72
2022/03/12 06:07:46;;;;;;;23.92;18.92;;;33.80;58.80;;;;;;1807595;78;21091;-73
2022/03/12 06:10:20;;;;;;;23.62;19.52;;;33.90;58.50;;;;;;1820948;78;21103;-71
2022/03/12 06:12:53;;;;;;;26.82;19.87;;;33.90;57.90;;;;;;1815601;78;21143;-71
2022/03/12 06:15:28;;;;;;;26.95;19.45;;;33.90;58.90;;;;;;1818072;77;21685;-71
2022/03/12 06:17:59;;;;;;;27.00;20.23;;;33.90;58.70;;;;;;1867520;77;21262;-72
2022/03/12 06:20:30;;;;;;;29.45;20.12;;;33.90;58.00;;;;;;1866625;75;21243;-72
2022/03/12 06:23:00;;;;;;;29.27;19.92;;;33.90;57.90;;;;;;1849063;77;21236;-72
2022/03/12 06:25:31;;;;;;;29.20;20.80;;;33.90;58.20;;;;;;1868602;76;21108;-73
2022/03/12 06:28:05;;;;;;;28.80;19.62;;;34.00;58.40;;;;;;1860888;76;21171;-72
2022/03/12 06:30:36;;;;;;;30.72;20.40;;;34.00;58.60;;;;;;1870245;75;21599;-72
2022/03/12 06:33:07;;;;;;;23.42;18.90;;;34.10;57.90;;;;;;1866750;75;21237;-72
2022/03/12 06:35:37;;;;;;;29.60;19.02;;;34.10;59.50;;;;;;1826398;77;21748;-71
2022/03/12 06:38:10;;;;;;;22.80;19.23;;;34.10;58.50;;;;;;1791847;78;21596;-71
2022/03/12 06:40:41;;;;;;;27.10;19.20;;;34.10;58.40;;;;;;1830016;77;21221;-70
2022/03/12 06:43:17;;;;;;;24.02;18.00;;;34.20;59.80;;;;;;1834644;77;21821;-71
2022/03/12 06:45:44;;;;;;;31.10;19.95;;;34.20;59.10;;;;;;1818975;77;21154;-71
2022/03/12 06:48:16;;;;;;;22.85;19.57;;;34.30;58.80;;;;;;1815313;78;21206;-72
2022/03/12 06:50:47;;;;;;;25.50;18.70;;;34.40;58.40;;;;;;1813829;77;21226;-71
2022/03/12 06:53:18;;;;;;;21.07;17.37;;;34.40;58.10;;;;;;1815410;78;21272;-71
2022/03/12 06:55:49;;;;;;;25.57;18.67;;;34.40;57.50;;;;;;1810895;78;21651;-71
2022/03/12 06:58:20;;;;;;;27.22;19.40;;;34.40;57.10;;;;;;1855316;76;21131;-71
2022/03/12 07:00:51;;;;;;;24.05;18.77;;;34.40;57.40;;;;;;1864721;77;21199;-72
2022/03/12 07:03:22;;;;;;;24.70;18.32;;;34.30;57.00;;;;;;1858295;75;21587;-73
2022/03/12 07:05:53;;;;;;;27.65;18.30;;;34.30;57.20;;;;;;1862392;75;21194;-73
2022/03/12 07:08:24;;;;;;;23.92;17.90;;;34.30;57.80;;;;;;1855080;76;21635;-74
2022/03/12 07:10:56;;;;;;;22.17;18.35;;;34.30;58.00;;;;;;1880477;75;21175;-76
2022/03/12 07:13:27;;;;;;;27.07;19.00;;;34.30;57.90;;;;;;1854554;76;21682;-75
2022/03/12 07:15:59;;;;;;;22.73;19.05;;;34.40;58.30;;;;;;1891051;75;21154;-76
2022/03/12 07:18:29;;;;;;;25.23;18.27;;;34.40;58.30;;;;;;1891098;75;21107;-75
2022/03/12 07:21:00;;;;;;;25.68;18.77;;;34.40;57.60;;;;;;1894366;75;21111;-75
2022/03/12 07:23:31;;;;;;;25.62;17.90;;;34.40;57.60;;;;;;1893769;75;21100;-75
2022/03/12 07:26:02;;;;;;;23.00;18.62;;;34.30;57.70;;;;;;1889079;75;21193;-75
2022/03/12 07:28:34;;;;;;;25.72;19.05;;;34.30;57.60;;;;;;1829844;77;21167;-76
2022/03/12 07:31:04;;;;;;;22.02;17.98;;;34.20;58.00;;;;;;1872884;76;21576;-76
2022/03/12 07:33:35;;;;;;;21.82;19.37;;;34.10;58.20;;;;;;1867739;76;21179;-74
2022/03/12 07:36:06;;;;;;;25.85;19.90;;;34.10;58.20;;;;;;1913301;74;21641;-87
2022/03/12 07:38:37;;;;;;;26.12;18.95;;;34.00;58.50;;;;;;1891013;75;21154;-86
2022/03/12 07:41:08;;;;;;;23.30;19.42;;;34.00;58.70;;;;;;1895207;75;21524;-87
2022/03/12 07:43:39;;;;;;;25.45;21.12;;;34.00;58.50;;;;;;1909884;74;21551;-86
2022/03/12 07:46:10;;;;;;;21.75;19.42;;;33.90;58.20;;;;;;1899478;75;21150;-86
2022/03/12 07:48:41;;;;;;;22.82;19.10;;;34.00;58.40;;;;;;1888312;75;21163;-86
2022/03/12 07:51:13;;;;;;;22.30;18.07;;;34.00;58.20;;;;;;1878852;75;21159;-87
2022/03/12 07:53:43;;;;;;;26.17;19.77;;;33.90;58.00;;;;;;1897024;75;21673;-88
2022/03/12 07:56:16;;;;;;;23.18;19.60;;;33.90;58.20;;;;;;1880139;75;21109;-86
2022/03/12 07:58:49;;;;;;;21.80;19.60;;;33.90;58.90;;;;;;1892067;75;21545;-87
2022/03/12 08:01:20;;;;;;;35.10;19.37;;;33.90;57.90;;;;;;1892651;74;22377;-86
2022/03/12 08:03:51;;;;;;;26.15;19.90;;;33.90;59.00;;;;;;1899152;75;21693;-85
2022/03/12 08:06:22;;;;;;;24.52;19.55;;;33.90;58.00;;;;;;1893371;75;21257;-86
2022/03/12 08:08:53;;;;;;;27.17;20.68;;;33.90;57.80;;;;;;1893140;74;21118;-86
2022/03/12 08:11:31;;;;;;;21.60;19.07;;;33.90;57.90;;;;;;1879752;75;21273;-86
2022/03/12 08:14:02;;;;;;;27.25;19.07;;;33.90;58.10;;;;;;1870115;76;21131;-86
2022/03/12 08:16:33;;;;;;;24.77;20.15;;;33.90;58.10;;;;;;1867426;75;21169;-86
2022/03/12 08:19:06;;;;;;;22.93;19.95;;;33.90;57.50;;;;;;1860116;75;21226;-86
2022/03/12 08:21:38;;;;;;;23.77;19.40;;;33.90;57.90;;;;;;1867508;76;21227;-86
2022/03/12 08:24:12;;;;;;;20.37;17.73;;;33.90;58.20;;;;;;1858762;75;21133;-84
2022/03/12 08:26:42;;;;;;;25.37;19.60;;;34.00;58.00;;;;;;1860499;76;21262;-86
2022/03/12 08:29:15;;;;;;;24.77;19.48;;;34.00;57.90;;;;;;1864908;76;21272;-85
2022/03/12 08:31:46;;;;;;;22.35;18.87;;;33.90;57.80;;;;;;1856806;76;21092;-86
2022/03/12 08:34:17;;;;;;;23.10;19.55;;;34.00;58.10;;;;;;1860928;76;21123;-87
2022/03/12 08:36:48;;;;;;;28.27;19.92;;;33.90;57.80;;;;;;1878763;75;21191;-87
2022/03/12 08:39:19;;;;;;;23.52;19.07;;;33.90;57.50;;;;;;1860186;76;21226;-86
2022/03/12 08:41:50;;;;;;;25.50;20.50;;;33.90;57.90;;;;;;1863202;76;21815;-85
2022/03/12 08:44:21;;;;;;;29.15;19.98;;;33.80;57.40;;;;;;1863095;76;21493;-86
2022/03/12 08:46:52;;;;;;;25.75;20.27;;;33.80;57.50;;;;;;1866723;76;21120;-88
2022/03/12 08:49:23;;;;;;;25.25;19.25;;;33.80;57.00;;;;;;1864682;76;21151;-88
2022/03/12 08:51:54;;;;;;;22.37;19.92;;;33.80;57.50;;;;;;1856277;76;21163;-87
2022/03/12 08:54:25;;;;;;;22.22;19.57;;;33.80;56.80;;;;;;1837208;77;21155;-87
2022/03/12 08:56:56;;;;;;;28.77;20.95;;;33.80;57.00;;;;;;1821852;76;21167;-86
2022/03/12 08:59:30;;;;;;;24.77;19.60;;;33.90;57.20;;;;;;1872397;76;21987;-87
2022/03/12 09:01:59;;;;;;;29.48;20.90;;;33.90;57.30;;;;;;1872359;76;21136;-86
2022/03/12 09:04:30;;;;;;;27.02;21.25;;;33.80;55.80;;;;;;1862428;75;21631;-87
2022/03/12 09:07:05;;;;;;;23.67;20.05;;;33.80;56.50;;;;;;1870021;76;21735;-86
2022/03/12 09:09:36;;;;;;;23.02;20.62;;;33.80;56.20;;;;;;1873545;76;21186;-88
2022/03/12 09:12:08;;;;;;;21.65;19.05;;;33.80;56.40;;;;;;1868121;75;21226;-87
2022/03/12 09:14:39;;;;;;;25.10;20.60;;;33.80;56.90;;;;;;1872849;76;21688;-88
2022/03/12 09:17:10;;;;;;;27.40;21.70;;;33.80;56.80;;;;;;1872578;76;21136;-87
2022/03/12 09:19:40;;;;;;;23.65;19.40;;;33.70;56.10;;;;;;1863459;75;21135;-87
2022/03/12 09:22:14;;;;;;;25.75;21.07;;;33.70;56.70;;;;;;1865501;75;21182;-87
2022/03/12 09:24:44;;;;;;;22.85;20.32;;;33.60;56.20;;;;;;1863184;76;21123;-88
2022/03/12 09:27:17;;;;;;;22.37;19.60;;;33.60;56.60;;;;;;1860036;76;21146;-88
2022/03/12 09:29:49;;;;;;;23.00;20.30;;;33.60;56.70;;;;;;1869519;75;21115;-87
2022/03/12 09:32:20;;;;;;;25.12;20.57;;;33.60;56.40;;;;;;1829056;77;21124;-87
2022/03/12 09:34:51;;;;;;;23.70;20.23;;;33.60;56.40;;;;;;1815383;77;21139;-86
2022/03/12 09:37:22;;;;;;;24.25;20.57;;;33.50;56.50;;;;;;1817228;79;21164;-88
2022/03/12 09:39:53;;;;;;;23.45;20.70;;;33.50;56.60;;;;;;1820795;77;21674;-87
2022/03/12 09:42:26;;;;;;;22.42;20.02;;;33.50;57.00;;;;;;1810463;78;21255;-87
2022/03/12 09:44:56;;;;;;;22.50;20.08;;;33.50;57.00;;;;;;1814954;78;21183;-86
2022/03/12 09:47:27;;;;;;;22.65;20.25;;;33.50;57.20;;;;;;1828944;77;21189;-87
2022/03/12 09:49:58;;;;;;;23.80;20.27;;;33.50;57.70;;;;;;1837983;77;21568;-86
2022/03/12 09:52:29;;;;;;;25.35;20.85;;;33.40;57.00;;;;;;1835557;77;21128;-87
2022/03/12 09:55:00;;;;;;;23.35;20.77;;;33.40;57.30;;;;;;1816949;77;21451;-86
2022/03/12 09:57:30;;;;;;;25.62;21.27;;;33.30;57.60;;;;;;1831322;76;21692;-87
2022/03/12 10:00:04;;;;;;;24.07;19.57;;;33.30;57.30;;;;;;1827790;77;21174;-86
2022/03/12 10:02:34;;;;;;;24.90;20.68;;;33.20;57.30;;;;;;1834937;76;21113;-88
2022/03/12 10:05:10;;;;;;;26.07;21.35;;;33.20;57.50;;;;;;1807965;78;21579;-86
2022/03/12 10:07:49;;;;;;;24.35;21.27;;;33.20;57.20;;;;;;1802651;78;21203;-88
2022/03/12 10:10:17;;;;;;;25.37;21.50;;;33.20;57.20;;;;;;1799950;78;21170;-88
2022/03/12 10:12:53;;;;;;;22.50;20.17;;;33.20;56.50;;;;;;1804616;78;21144;-85
2022/03/12 10:15:23;;;;;;;24.67;21.23;;;33.20;57.40;;;;;;1878384;75;21136;-88
2022/03/12 10:17:53;;;;;;;24.57;21.82;;;33.10;56.60;;;;;;1873923;75;21179;-88
2022/03/12 10:20:28;;;;;;;23.77;20.32;;;33.10;56.50;;;;;;1842136;76;21092;-88
2022/03/12 10:22:59;;;;;;;23.85;20.17;;;33.00;56.30;;;;;;1835690;77;21216;-89
2022/03/12 10:25:31;;;;;;;23.75;21.15;;;33.00;55.90;;;;;;1821156;77;21234;-87
2022/03/12 10:28:06;;;;;;;27.73;21.65;;;33.00;56.80;;;;;;1817988;78;21076;-88
2022/03/12 10:30:36;;;;;;;28.10;22.10;;;33.00;56.40;;;;;;1819720;79;21950;-88
2022/03/12 10:33:14;;;;;;;23.80;21.05;;;32.90;56.70;;;;;;1795842;79;21654;-88
2022/03/12 10:35:46;;;;;;;24.23;21.57;;;32.90;56.90;;;;;;1817761;78;21068;-88
2022/03/12 10:38:17;;;;;;;23.95;21.40;;;32.90;56.20;;;;;;1869104;76;21120;-88
2022/03/12 10:40:49;;;;;;;27.07;21.77;;;32.90;56.80;;;;;;1872323;76;21143;-88
2022/03/12 10:43:20;;;;;;;25.62;22.07;;;32.90;56.60;;;;;;1876052;75;21619;-87
2022/03/12 10:45:53;;;;;;;26.68;22.37;;;32.90;56.60;;;;;;1870841;76;21177;-88
2022/03/12 10:48:25;;;;;;;23.73;21.27;;;32.80;56.60;;;;;;1875169;76;21266;-87
2022/03/12 10:50:57;;;;;;;27.55;21.30;;;32.80;56.50;;;;;;1855975;75;21076;-87
2022/03/12 10:53:27;;;;;;;27.82;21.35;;;32.80;56.70;;;;;;1870338;76;21143;-87
2022/03/12 10:55:58;;;;;;;25.12;22.52;;;32.70;56.90;;;;;;1871615;76;21186;-88
2022/03/12 10:58:29;;;;;;;26.95;21.57;;;32.70;57.10;;;;;;1872611;75;21139;-86
2022/03/12 11:01:03;;;;;;;27.60;21.93;;;32.70;57.30;;;;;;1862365;75;21130;-87
2022/03/12 11:03:37;;;;;;;29.55;21.42;;;32.70;57.20;;;;;;1865784;75;21663;-87
2022/03/12 11:06:08;;;;;;;27.13;22.85;;;32.70;56.70;;;;;;1842222;75;21629;-90
2022/03/12 11:08:41;;;;;;;28.60;21.57;;;32.70;56.90;;;;;;1872310;75;21515;-88
2022/03/12 11:11:16;;;;;;;29.48;24.95;;;32.70;57.00;;;;;;1838677;77;21221;-87
2022/03/12 11:13:52;;;;;;;28.20;23.83;;;32.70;56.80;;;;;;1774505;78;21678;-89
2022/03/12 11:16:24;;;;;;;27.77;21.65;;;32.60;56.90;;;;;;1791103;79;21147;-88
2022/03/12 11:19:01;;;;;;;25.37;21.48;;;32.60;57.10;;;;;;1797955;78;21205;-88
2022/03/12 11:21:38;;;;;;;26.07;21.57;;;32.60;57.40;;;;;;1873965;75;21163;-87
2022/03/12 11:24:13;;;;;;;25.95;22.73;;;32.60;57.70;;;;;;1839805;75;21182;-88
2022/03/12 11:26:48;;;;;;;28.40;23.05;;;32.50;57.80;;;;;;1869006;75;21194;-88
2022/03/12 11:29:26;;;;;;;26.10;23.30;;;32.40;57.90;;;;;;1868491;76;21670;-88
2022/03/12 11:31:58;;;;;;;28.30;23.07;;;32.40;58.10;;;;;;1871752;75;21073;-87
2022/03/12 11:34:30;;;;;;;27.35;22.98;;;32.40;58.40;;;;;;1857805;76;21263;-88
2022/03/12 11:37:08;;;;;;;27.02;22.98;;;32.30;58.50;;;;;;1866135;75;21596;-89
2022/03/12 11:39:39;;;;;;;28.02;23.30;;;32.30;58.50;;;;;;1893761;75;21546;-90
2022/03/12 11:42:15;;;;;;;31.82;26.20;;;32.30;58.60;;;;;;1852031;77;21064;-88
2022/03/12 11:44:47;;;;;;;37.03;29.10;;;32.20;58.80;;;;;;1835621;77;21158;-88
2022/03/12 11:47:20;;;;;;;28.47;25.15;;;32.20;59.00;;;;;;1873955;75;21217;-88
2022/03/12 11:49:53;;;;;;;27.17;23.45;;;32.20;59.20;;;;;;1849787;75;21709;-88
2022/03/12 11:52:24;;;;;;;28.67;25.15;;;32.20;59.20;;;;;;1897215;75;21234;-88
2022/03/12 11:54:56;;;;;;;28.27;24.07;;;32.10;59.20;;;;;;1894107;75;21072;-88
2022/03/12 11:57:30;;;;;;;32.17;24.67;;;32.10;59.40;;;;;;1867919;76;21108;-87
2022/03/12 12:00:02;;;;;;;28.73;24.15;;;32.10;59.60;;;;;;1863861;76;21151;-89
2022/03/12 12:02:33;;;;;;;26.85;24.00;;;32.10;59.60;;;;;;1840396;76;21164;-88
2022/03/12 12:05:22;;;;;;;32.60;25.12;;;32.10;59.80;;;;;;1902668;75;21135;-90
2022/03/12 12:10:08;;;;;;;36.83;23.62;;;32.10;60.00;;;;;;1863450;75;21664;-90
2022/03/12 12:11:46;;;;;;;25.30;22.55;;;32.00;59.90;;;;;;1669921;82;21221;-89
2022/03/12 12:14:19;;;;;;;32.28;25.02;;;32.00;60.00;;;;;;1750237;82;21189;-88
2022/03/12 12:16:52;;;;;;;29.92;25.27;;;32.00;60.20;;;;;;1753257;80;21160;-90
2022/03/12 12:19:21;;;;;;;26.93;24.02;;;32.00;60.40;;;;;;1753889;80;21242;-89
2022/03/12 12:21:53;;;;;;;31.97;25.75;;;32.00;60.40;;;;;;1765948;80;21276;-89
2022/03/12 12:24:26;;;;;;;33.35;26.80;;;31.90;60.30;;;;;;1769022;80;21242;-89
2022/03/12 12:27:00;;;;;;;33.75;28.70;;;31.90;60.60;;;;;;1763429;80;21196;-89
2022/03/12 12:29:34;;;;;;;35.15;26.73;;;31.90;60.60;;;;;;1777266;80;21202;-88
2022/03/12 12:32:05;;;;;;;34.08;27.58;;;31.90;60.60;;;;;;1762609;80;21693;-88
2022/03/12 12:34:39;;;;;;;30.43;25.40;;;31.90;60.90;;;;;;1749801;82;21147;-88
2022/03/12 12:37:09;;;;;;;29.12;25.95;;;31.90;60.90;;;;;;1746777;82;21211;-88
2022/03/12 12:39:41;;;;;;;29.12;25.97;;;31.80;61.20;;;;;;1753362;80;21746;-87
2022/03/12 12:42:11;;;;;;;34.40;26.48;;;31.80;61.30;;;;;;1753167;82;21245;-88
2022/03/12 12:44:44;;;;;;;30.08;26.00;;;31.80;61.70;;;;;;1748799;82;21316;-88
2022/03/12 12:47:18;;;;;;;29.20;25.97;;;31.70;61.70;;;;;;1840424;75;21126;-88
2022/03/12 12:49:51;;;;;;;31.37;28.07;;;31.70;61.90;;;;;;1874560;75;21129;-89
2022/03/12 12:52:23;;;;;;;31.85;28.35;;;31.70;62.00;;;;;;1849435;76;21156;-89